createdAt,value
2023-04-16T00:01:34.860Z,81.16
2023-04-16T00:04:01.703Z,81.33
2023-04-16T00:06:28.687Z,81.66
2023-04-16T00:08:55.238Z,81.55
2023-04-16T00:11:22.128Z,80.82
2023-04-16T00:13:48.962Z,81.64
2023-04-16T00:16:15.529Z,81.78
2023-04-16T00:18:41.913Z,81.53
2023-04-16T00:21:08.292Z,81.53
2023-04-16T00:23:34.678Z,81.61
2023-04-16T00:26:01.162Z,82.02
2023-04-16T00:28:27.632Z,81.46
2023-04-16T00:30:54.811Z,81.21
2023-04-16T00:33:21.449Z,81.40
2023-04-16T00:35:48.534Z,81.41
2023-04-16T00:38:15.017Z,80.63
2023-04-16T00:40:41.393Z,80.42
2023-04-16T00:43:07.764Z,81.15
2023-04-16T00:45:34.472Z,80.91
2023-04-16T00:48:01.495Z,81.39
2023-04-16T00:50:28.216Z,81.34
2023-04-16T00:52:55.570Z,81.18
2023-04-16T00:55:22.103Z,81.77
2023-04-16T00:57:48.522Z,81.31
2023-04-16T01:00:15.006Z,81.87
2023-04-16T01:02:41.816Z,80.85
2023-04-16T01:05:08.497Z,81.84
2023-04-16T01:07:35.055Z,81.51
2023-04-16T01:10:01.451Z,81.01
2023-04-16T01:12:27.863Z,80.44
2023-04-16T01:14:54.391Z,81.31
2023-04-16T01:17:20.771Z,79.99
2023-04-16T01:19:47.139Z,79.93
2023-04-16T01:22:17.569Z,80.74
2023-04-16T01:24:45.085Z,80.41
2023-04-16T01:27:11.446Z,79.73
2023-04-16T01:29:37.867Z,80.18
2023-04-16T01:32:04.280Z,79.74
2023-04-16T01:34:33.946Z,79.85
2023-04-16T01:37:00.388Z,79.84
2023-04-16T01:39:28.660Z,79.38
2023-04-16T01:41:57.084Z,78.81
2023-04-16T01:44:23.605Z,79.01
2023-04-16T01:46:50.147Z,79.21
2023-04-16T01:49:16.716Z,79.23
2023-04-16T01:51:43.788Z,79.45
2023-04-16T01:54:10.170Z,78.15
2023-04-16T01:56:36.534Z,79.00
2023-04-16T01:59:03.157Z,78.24
2023-04-16T02:01:35.850Z,78.31
2023-04-16T02:04:03.153Z,78.79
2023-04-16T02:06:30.481Z,78.24
2023-04-16T02:08:56.874Z,78.89
2023-04-16T02:11:23.965Z,78.90
2023-04-16T02:13:50.751Z,79.25
2023-04-16T02:16:18.252Z,78.31
2023-04-16T02:19:04.503Z,78.31
2023-04-16T02:21:34.296Z,78.34
2023-04-16T02:24:00.795Z,78.97
2023-04-16T02:26:29.889Z,78.24
2023-04-16T02:29:01.851Z,78.29
2023-04-16T02:31:36.612Z,78.46
2023-04-16T02:34:03.790Z,79.09
2023-04-16T02:36:31.417Z,79.34
2023-04-16T02:38:58.568Z,79.87
2023-04-16T02:41:24.983Z,79.03
2023-04-16T02:43:51.417Z,79.19
2023-04-16T02:46:17.816Z,78.08
2023-04-16T02:48:44.216Z,78.44
2023-04-16T02:51:10.979Z,78.48
2023-04-16T02:53:37.413Z,78.41
2023-04-16T02:56:03.916Z,79.52
2023-04-16T02:58:30.873Z,79.55
2023-04-16T03:00:57.290Z,78.71
2023-04-16T03:03:23.947Z,79.09
2023-04-16T03:05:50.968Z,78.59
2023-04-16T03:08:17.366Z,78.51
2023-04-16T03:10:43.878Z,79.12
2023-04-16T03:13:10.257Z,78.78
2023-04-16T03:15:36.698Z,78.90
2023-04-16T03:18:03.188Z,79.48
2023-04-16T03:20:29.672Z,78.99
2023-04-16T03:22:57.144Z,79.29
2023-04-16T03:25:23.513Z,79.40
2023-04-16T03:27:51.005Z,79.42
2023-04-16T03:30:17.470Z,78.88
2023-04-16T03:32:43.927Z,79.33
2023-04-16T03:35:11.230Z,78.87
2023-04-16T03:37:37.812Z,79.56
2023-04-16T03:40:06.824Z,78.97
2023-04-16T03:42:33.520Z,79.00
2023-04-16T03:45:00.646Z,79.28
2023-04-16T03:47:28.056Z,79.20
2023-04-16T03:49:58.228Z,78.66
2023-04-16T03:52:24.648Z,79.41
2023-04-16T03:54:52.251Z,79.57
2023-04-16T03:57:25.802Z,79.16
2023-04-16T03:59:55.654Z,79.74
2023-04-16T04:02:23.240Z,79.17
2023-04-16T04:04:49.858Z,79.63
2023-04-16T04:07:17.093Z,79.49
2023-04-16T04:09:43.515Z,79.30
2023-04-16T04:12:10.133Z,80.15
2023-04-16T04:14:39.827Z,79.55
2023-04-16T04:17:07.971Z,79.66
2023-04-16T04:19:34.567Z,79.56
2023-04-16T04:22:02.082Z,79.81
2023-04-16T04:24:28.626Z,79.48
2023-04-16T04:26:55.162Z,79.06
2023-04-16T04:29:21.854Z,79.92
2023-04-16T04:31:49.365Z,79.51
2023-04-16T04:34:15.955Z,79.89
2023-04-16T04:36:42.450Z,80.36
2023-04-16T04:39:09.534Z,79.35
2023-04-16T04:41:36.325Z,79.71
2023-04-16T04:44:03.542Z,79.98
2023-04-16T04:46:30.103Z,79.75
2023-04-16T04:48:56.502Z,80.39
2023-04-16T04:51:22.906Z,80.24
2023-04-16T04:53:49.286Z,80.35
2023-04-16T04:56:15.755Z,80.57
2023-04-16T04:58:42.385Z,80.18
2023-04-16T05:01:08.825Z,80.49
2023-04-16T05:03:35.481Z,81.01
2023-04-16T05:06:02.044Z,80.13
2023-04-16T05:08:28.455Z,81.04
2023-04-16T05:10:54.891Z,80.07
2023-04-16T05:13:21.569Z,80.54
2023-04-16T05:15:47.972Z,80.03
2023-04-16T05:18:14.750Z,81.28
2023-04-16T05:20:41.118Z,80.66
2023-04-16T05:23:07.589Z,80.79
2023-04-16T05:25:33.986Z,80.90
2023-04-16T05:28:00.441Z,80.76
2023-04-16T05:30:26.804Z,81.16
2023-04-16T05:32:53.264Z,80.51
2023-04-16T05:35:19.711Z,80.39
2023-04-16T05:37:46.115Z,81.48
2023-04-16T05:40:14.044Z,80.78
2023-04-16T05:42:40.478Z,81.51
2023-04-16T05:45:07.317Z,81.24
2023-04-16T05:47:36.752Z,82.77
2023-04-16T05:50:03.155Z,81.23
2023-04-16T05:52:29.514Z,81.39
2023-04-16T05:54:55.989Z,82.70
2023-04-16T05:57:22.405Z,83.44
2023-04-16T05:59:48.762Z,82.97
2023-04-16T06:02:15.397Z,82.90
2023-04-16T06:04:41.847Z,83.32
2023-04-16T06:07:08.209Z,82.08
2023-04-16T06:09:34.571Z,82.71
2023-04-16T06:12:01.209Z,82.74
2023-04-16T06:14:27.617Z,82.86
2023-04-16T06:16:53.991Z,82.31
2023-04-16T06:19:20.500Z,82.14
2023-04-16T06:21:46.890Z,82.20
2023-04-16T06:24:13.315Z,82.55
2023-04-16T06:26:39.793Z,83.00
2023-04-16T06:29:06.230Z,82.75
2023-04-16T06:31:32.747Z,82.24
2023-04-16T06:33:59.142Z,82.28
2023-04-16T06:36:26.911Z,82.04
2023-04-16T06:38:53.329Z,82.92
2023-04-16T06:41:19.706Z,81.90
2023-04-16T06:43:46.109Z,81.92
2023-04-16T06:46:12.502Z,81.61
2023-04-16T06:48:39.935Z,81.85
2023-04-16T06:51:06.344Z,82.06
2023-04-16T06:53:33.260Z,82.09
2023-04-16T06:55:59.617Z,82.15
2023-04-16T06:58:25.993Z,82.50
2023-04-16T07:00:52.418Z,82.41
2023-04-16T07:03:18.890Z,81.71
2023-04-16T07:05:45.650Z,81.97
2023-04-16T07:08:12.029Z,81.79
2023-04-16T07:10:40.317Z,81.66
2023-04-16T07:13:08.729Z,81.03
2023-04-16T07:15:35.508Z,80.81
2023-04-16T07:18:01.954Z,81.28
2023-04-16T07:20:28.544Z,81.43
2023-04-16T07:22:54.981Z,81.77
2023-04-16T07:25:21.530Z,81.00
2023-04-16T07:27:47.999Z,80.28
2023-04-16T07:30:14.455Z,80.96
2023-04-16T07:32:40.884Z,81.22
2023-04-16T07:35:07.533Z,81.53
2023-04-16T07:37:33.891Z,82.73
2023-04-16T07:40:00.690Z,82.35
2023-04-16T07:42:27.936Z,82.60
2023-04-16T07:44:54.941Z,81.80
2023-04-16T07:47:23.028Z,81.54
2023-04-16T07:49:50.574Z,81.14
2023-04-16T07:52:16.924Z,81.77
2023-04-16T07:54:43.327Z,81.92
2023-04-16T07:57:09.709Z,81.56
2023-04-16T07:59:36.158Z,81.49
2023-04-16T08:02:02.628Z,80.35
2023-04-16T08:04:29.239Z,80.09
2023-04-16T08:06:56.056Z,79.34
2023-04-16T08:09:23.941Z,80.66
2023-04-16T08:11:50.759Z,81.59
2023-04-16T08:14:17.679Z,80.79
2023-04-16T08:16:44.173Z,80.39
2023-04-16T08:19:10.875Z,80.59
2023-04-16T08:21:37.638Z,78.54
2023-04-16T08:24:04.125Z,80.18
2023-04-16T08:26:32.763Z,80.32
2023-04-16T08:28:59.187Z,78.21
2023-04-16T08:31:25.825Z,78.62
2023-04-16T08:33:53.412Z,79.37
2023-04-16T08:36:19.791Z,80.05
2023-04-16T08:38:46.255Z,80.20
2023-04-16T08:41:13.460Z,79.79
2023-04-16T08:43:44.526Z,79.71
2023-04-16T08:46:12.213Z,78.71
2023-04-16T08:48:41.762Z,79.08
2023-04-16T08:51:13.861Z,80.31
2023-04-16T08:53:52.933Z,79.52
2023-04-16T08:56:23.796Z,79.72
2023-04-16T08:58:51.569Z,79.50
2023-04-16T09:01:19.539Z,78.47
2023-04-16T09:03:48.280Z,78.52
2023-04-16T09:06:19.131Z,78.09
2023-04-16T09:08:46.281Z,78.15
2023-04-16T09:11:17.932Z,77.47
2023-04-16T09:13:45.914Z,79.82
2023-04-16T09:16:13.303Z,78.91
2023-04-16T09:18:39.884Z,78.34
2023-04-16T09:21:08.441Z,76.33
2023-04-16T09:23:35.413Z,74.54
2023-04-16T09:26:02.272Z,74.21
2023-04-16T09:28:46.771Z,73.67
2023-04-16T09:31:14.962Z,74.41
2023-04-16T09:33:42.872Z,74.47
2023-04-16T09:36:09.988Z,73.46
2023-04-16T09:38:46.735Z,74.54
2023-04-16T09:41:13.765Z,73.92
2023-04-16T09:43:40.238Z,73.07
2023-04-16T09:46:12.536Z,74.13
2023-04-16T09:48:38.952Z,73.78
2023-04-16T09:51:06.950Z,74.45
2023-04-16T09:53:33.388Z,74.37
2023-04-16T09:56:01.943Z,74.98
2023-04-16T09:58:29.145Z,75.49
2023-04-16T10:01:17.909Z,76.07
2023-04-16T10:03:49.891Z,76.13
2023-04-16T10:06:20.525Z,76.16
2023-04-16T10:08:51.665Z,76.31
2023-04-16T10:11:19.784Z,74.88
2023-04-16T10:13:46.400Z,74.86
2023-04-16T10:16:13.307Z,74.96
2023-04-16T10:18:44.406Z,74.89
2023-04-16T10:21:12.607Z,72.93
2023-04-16T10:23:39.989Z,73.35
2023-04-16T10:26:06.459Z,72.93
2023-04-16T10:28:35.306Z,73.45
2023-04-16T10:31:03.960Z,73.37
2023-04-16T10:33:32.652Z,74.78
2023-04-16T10:36:08.417Z,74.69
2023-04-16T10:38:35.403Z,74.70
2023-04-16T10:41:03.529Z,74.15
2023-04-16T10:43:44.269Z,74.85
2023-04-16T10:46:30.236Z,74.50
2023-04-16T10:49:01.295Z,75.57
2023-04-16T10:51:32.185Z,74.99
2023-04-16T10:54:03.041Z,74.16
2023-04-16T10:56:32.527Z,74.39
2023-04-16T10:58:58.938Z,74.77
2023-04-16T11:01:33.901Z,74.35
2023-04-16T11:04:21.444Z,74.72
2023-04-16T11:07:16.980Z,75.91
2023-04-16T11:09:56.096Z,74.71
2023-04-16T11:12:27.161Z,76.79
2023-04-16T11:14:57.935Z,75.94
2023-04-16T11:17:29.349Z,76.85
2023-04-16T11:19:56.354Z,76.22
2023-04-16T11:22:22.816Z,77.08
2023-04-16T11:24:55.281Z,77.01
2023-04-16T11:27:22.647Z,76.13
2023-04-16T11:30:00.584Z,77.36
2023-04-16T11:32:27.119Z,75.74
2023-04-16T11:34:53.660Z,76.20
2023-04-16T11:37:36.671Z,74.36
2023-04-16T11:40:08.216Z,75.97
2023-04-16T11:42:40.324Z,76.09
2023-04-16T11:45:08.311Z,75.73
2023-04-16T11:47:46.494Z,76.58
2023-04-16T11:50:21.447Z,74.37
2023-04-16T11:52:48.619Z,76.20
2023-04-16T11:55:15.544Z,75.80
2023-04-16T11:57:42.157Z,74.97
2023-04-16T12:00:13.826Z,75.36
2023-04-16T12:02:45.933Z,75.51
2023-04-16T12:05:34.394Z,74.07
2023-04-16T12:08:02.546Z,73.93
2023-04-16T12:10:30.131Z,74.15
2023-04-16T12:13:17.371Z,74.33
2023-04-16T12:15:49.228Z,75.04
2023-04-16T12:18:16.651Z,74.83
2023-04-16T12:20:44.161Z,74.02
2023-04-16T12:23:11.387Z,74.91
2023-04-16T12:25:37.757Z,74.45
2023-04-16T12:28:04.490Z,73.90
2023-04-16T12:30:31.205Z,73.74
2023-04-16T12:33:17.309Z,73.99
2023-04-16T12:35:44.825Z,73.66
2023-04-16T12:38:11.865Z,73.43
2023-04-16T12:40:38.462Z,73.25
2023-04-16T12:43:04.964Z,73.54
2023-04-16T12:45:31.308Z,73.58
2023-04-16T12:47:57.932Z,73.70
2023-04-16T12:50:24.547Z,73.69
2023-04-16T12:52:50.970Z,74.24
2023-04-16T12:55:17.460Z,73.99
2023-04-16T12:57:44.443Z,74.52
2023-04-16T13:00:11.228Z,74.26
2023-04-16T13:02:37.884Z,75.55
2023-04-16T13:05:04.761Z,74.51
2023-04-16T13:07:32.259Z,75.60
2023-04-16T13:09:59.293Z,73.45
2023-04-16T13:12:27.175Z,74.34
2023-04-16T13:14:54.233Z,74.80
2023-04-16T13:17:20.652Z,73.99
2023-04-16T13:19:47.038Z,74.71
2023-04-16T13:22:13.552Z,74.10
2023-04-16T13:24:39.933Z,74.00
2023-04-16T13:27:08.248Z,74.52
2023-04-16T13:29:36.618Z,74.17
2023-04-16T13:32:03.569Z,74.78
2023-04-16T13:34:30.144Z,74.90
2023-04-16T13:36:56.499Z,75.21
2023-04-16T13:39:22.845Z,74.93
2023-04-16T13:41:50.119Z,75.85
2023-04-16T13:44:16.598Z,74.29
2023-04-16T13:46:47.810Z,75.02
2023-04-16T13:49:14.889Z,75.42
2023-04-16T13:51:44.533Z,75.56
2023-04-16T13:54:14.891Z,75.87
2023-04-16T13:56:41.418Z,74.93
2023-04-16T13:59:08.066Z,74.88
2023-04-16T14:01:34.598Z,74.71
2023-04-16T14:04:05.942Z,74.92
2023-04-16T14:06:33.657Z,74.51
2023-04-16T14:09:00.305Z,75.44
2023-04-16T14:11:28.647Z,75.29
2023-04-16T14:13:55.579Z,73.92
2023-04-16T14:16:22.091Z,74.49
2023-04-16T14:18:48.522Z,75.63
2023-04-16T14:21:14.903Z,75.77
2023-04-16T14:23:41.391Z,76.58
2023-04-16T14:26:08.254Z,74.51
2023-04-16T14:28:35.594Z,74.45
2023-04-16T14:31:02.004Z,75.76
2023-04-16T14:33:28.378Z,76.95
2023-04-16T14:35:54.811Z,77.01
2023-04-16T14:38:21.222Z,75.30
2023-04-16T14:40:48.300Z,75.11
2023-04-16T14:43:14.871Z,75.10
2023-04-16T14:45:41.680Z,76.47
2023-04-16T14:48:08.117Z,75.97
2023-04-16T14:50:38.850Z,76.30
2023-04-16T14:53:05.858Z,75.82
2023-04-16T14:55:32.501Z,76.69
2023-04-16T14:57:59.595Z,74.98
2023-04-16T15:00:26.226Z,75.89
2023-04-16T15:02:53.626Z,76.07
2023-04-16T15:05:20.315Z,76.41
2023-04-16T15:07:46.732Z,76.64
2023-04-16T15:10:13.287Z,76.31
2023-04-16T15:12:39.686Z,74.74
2023-04-16T15:15:09.657Z,76.34
2023-04-16T15:17:36.374Z,75.87
2023-04-16T15:20:05.752Z,75.76
2023-04-16T15:22:32.135Z,76.55
2023-04-16T15:24:58.504Z,78.00
2023-04-16T15:27:24.911Z,76.84
2023-04-16T15:29:53.145Z,75.70
2023-04-16T15:32:19.655Z,76.17
2023-04-16T15:34:46.521Z,77.25
2023-04-16T15:37:13.138Z,76.71
2023-04-16T15:39:39.593Z,76.56
2023-04-16T15:42:07.425Z,77.28
2023-04-16T15:44:34.712Z,76.42
2023-04-16T15:47:01.674Z,76.85
2023-04-16T15:49:28.096Z,76.30
2023-04-16T15:51:55.467Z,76.73
2023-04-16T15:54:21.903Z,77.23
2023-04-16T15:56:48.297Z,76.54
2023-04-16T15:59:14.690Z,77.43
2023-04-16T16:01:41.097Z,77.60
2023-04-16T16:04:08.203Z,75.43
2023-04-16T16:06:34.944Z,75.68
2023-04-16T16:09:01.668Z,76.26
2023-04-16T16:11:28.511Z,77.57
2023-04-16T16:13:55.377Z,77.70
2023-04-16T16:16:22.004Z,76.37
2023-04-16T16:18:48.639Z,76.46
2023-04-16T16:21:15.065Z,76.66
2023-04-16T16:23:41.456Z,77.02
2023-04-16T16:26:07.928Z,77.47
2023-04-16T16:28:37.472Z,78.03
2023-04-16T16:31:05.712Z,77.69
2023-04-16T16:33:32.132Z,78.44
2023-04-16T16:35:58.620Z,78.64
2023-04-16T16:38:24.974Z,76.95
2023-04-16T16:40:51.326Z,79.07
2023-04-16T16:43:17.745Z,78.65
2023-04-16T16:45:44.174Z,78.11
2023-04-16T16:48:10.649Z,77.17
2023-04-16T16:50:37.043Z,78.66
2023-04-16T16:53:03.547Z,77.72
2023-04-16T16:55:31.195Z,78.56
2023-04-16T16:57:58.343Z,78.37
2023-04-16T17:00:24.859Z,78.03
2023-04-16T17:02:51.959Z,78.33
2023-04-16T17:05:18.662Z,78.26
2023-04-16T17:07:45.701Z,79.00
2023-04-16T17:10:15.712Z,78.31
2023-04-16T17:12:42.407Z,77.83
2023-04-16T17:15:09.540Z,78.32
2023-04-16T17:17:35.969Z,79.36
2023-04-16T17:20:08.154Z,78.57
2023-04-16T17:22:34.865Z,79.52
2023-04-16T17:25:01.649Z,79.31
2023-04-16T17:27:29.338Z,79.54
2023-04-16T17:30:00.004Z,78.88
2023-04-16T17:32:26.695Z,78.79
2023-04-16T17:34:55.381Z,79.52
2023-04-16T17:37:22.592Z,78.78
2023-04-16T17:39:49.443Z,78.98
2023-04-16T17:42:16.036Z,79.50
2023-04-16T17:44:42.426Z,79.34
2023-04-16T17:47:08.976Z,79.71
2023-04-16T17:49:35.476Z,79.69
2023-04-16T17:52:02.040Z,79.50
2023-04-16T17:54:28.432Z,79.78
2023-04-16T17:56:54.824Z,79.83
2023-04-16T17:59:21.739Z,79.27
2023-04-16T18:01:49.474Z,79.82
2023-04-16T18:04:16.479Z,79.67
2023-04-16T18:06:43.254Z,79.82
2023-04-16T18:09:09.628Z,79.52
2023-04-16T18:11:36.179Z,80.15
2023-04-16T18:14:02.584Z,79.86
2023-04-16T18:16:29.030Z,80.25
2023-04-16T18:18:55.497Z,79.80
2023-04-16T18:21:21.989Z,80.10
2023-04-16T18:23:48.373Z,79.42
2023-04-16T18:26:18.410Z,80.33
2023-04-16T18:28:47.210Z,79.81
2023-04-16T18:31:13.836Z,79.77
2023-04-16T18:33:55.711Z,80.06
2023-04-16T18:36:24.258Z,79.60
2023-04-16T18:39:00.974Z,80.37
2023-04-16T18:41:29.554Z,79.90
2023-04-16T18:43:56.045Z,80.38
2023-04-16T18:46:22.499Z,79.92
2023-04-16T18:48:48.905Z,79.52
2023-04-16T18:51:19.449Z,80.35
2023-04-16T18:53:52.237Z,79.72
2023-04-16T18:56:18.664Z,80.04
2023-04-16T18:58:45.042Z,79.95
2023-04-16T19:01:13.399Z,80.82
2023-04-16T19:03:40.050Z,79.35
2023-04-16T19:06:06.489Z,79.38
2023-04-16T19:08:32.998Z,79.77
2023-04-16T19:10:59.499Z,80.14
2023-04-16T19:13:26.007Z,79.89
2023-04-16T19:16:00.833Z,79.19
2023-04-16T19:18:28.055Z,79.79
2023-04-16T19:21:01.170Z,79.66
2023-04-16T19:23:28.146Z,80.01
2023-04-16T19:25:57.740Z,79.93
2023-04-16T19:28:24.631Z,79.39
2023-04-16T19:30:52.254Z,79.40
2023-04-16T19:33:18.968Z,79.53
2023-04-16T19:35:46.139Z,80.05
2023-04-16T19:38:12.508Z,80.23
2023-04-16T19:40:38.971Z,79.78
2023-04-16T19:43:05.592Z,80.50
2023-04-16T19:45:32.068Z,81.24
2023-04-16T19:47:58.869Z,80.86
2023-04-16T19:50:25.265Z,81.55
2023-04-16T19:52:51.925Z,81.28
2023-04-16T19:55:18.902Z,80.71
2023-04-16T19:57:48.035Z,79.81
2023-04-16T20:00:14.850Z,79.52
2023-04-16T20:02:41.424Z,78.93
2023-04-16T20:05:08.484Z,79.24
2023-04-16T20:07:34.918Z,78.94
2023-04-16T20:10:02.674Z,78.71
2023-04-16T20:12:29.055Z,78.92
2023-04-16T20:14:55.641Z,78.94
2023-04-16T20:17:22.236Z,79.21
2023-04-16T20:19:49.396Z,78.73
2023-04-16T20:22:18.171Z,78.65
2023-04-16T20:24:47.879Z,78.46
2023-04-16T20:27:14.971Z,79.48
2023-04-16T20:29:41.917Z,78.76
2023-04-16T20:32:08.444Z,78.96
2023-04-16T20:34:34.928Z,79.63
2023-04-16T20:37:01.364Z,80.11
2023-04-16T20:39:34.575Z,80.50
2023-04-16T20:42:04.149Z,79.94
2023-04-16T20:44:40.102Z,80.00
2023-04-16T20:47:15.161Z,80.31
2023-04-16T20:49:48.200Z,80.87
2023-04-16T20:52:17.669Z,80.13
2023-04-16T20:54:44.397Z,81.56
2023-04-16T20:57:11.033Z,81.27
2023-04-16T20:59:37.426Z,80.16
2023-04-16T21:02:04.368Z,80.87
2023-04-16T21:04:31.024Z,80.35
2023-04-16T21:06:57.518Z,79.69
2023-04-16T21:09:24.163Z,79.42
2023-04-16T21:11:50.652Z,79.12
2023-04-16T21:14:17.023Z,78.67
2023-04-16T21:16:43.428Z,79.56
2023-04-16T21:19:10.046Z,79.32
2023-04-16T21:21:38.159Z,80.01
2023-04-16T21:24:04.677Z,80.86
2023-04-16T21:26:31.037Z,79.70
2023-04-16T21:28:57.421Z,80.53
2023-04-16T21:31:24.120Z,79.56
2023-04-16T21:33:50.682Z,79.32
2023-04-16T21:36:17.129Z,79.41
2023-04-16T21:38:43.550Z,80.08
2023-04-16T21:41:10.014Z,79.26
2023-04-16T21:43:36.365Z,80.11
2023-04-16T21:46:02.929Z,80.58
2023-04-16T21:48:29.431Z,80.09
2023-04-16T21:51:00.973Z,80.51
2023-04-16T21:53:31.987Z,80.31
2023-04-16T21:55:58.600Z,80.56
2023-04-16T21:58:28.164Z,80.42
2023-04-16T22:00:54.628Z,79.79
2023-04-16T22:03:27.676Z,80.34
2023-04-16T22:06:00.603Z,80.41
2023-04-16T22:08:30.879Z,79.31
2023-04-16T22:11:01.927Z,79.30
2023-04-16T22:13:32.240Z,80.71
2023-04-16T22:16:02.505Z,80.10
2023-04-16T22:18:32.620Z,80.50
2023-04-16T22:20:59.892Z,80.00
2023-04-16T22:23:26.307Z,81.03
2023-04-16T22:25:54.770Z,81.23
2023-04-16T22:28:21.786Z,79.62
2023-04-16T22:30:48.325Z,80.50
2023-04-16T22:33:14.742Z,80.44
2023-04-16T22:35:41.328Z,81.51
2023-04-16T22:38:07.733Z,80.63
2023-04-16T22:40:34.091Z,80.97
2023-04-16T22:43:00.529Z,80.82
2023-04-16T22:45:27.289Z,81.33
2023-04-16T22:47:53.802Z,80.72
2023-04-16T22:50:20.634Z,79.72
2023-04-16T22:52:47.088Z,80.57
2023-04-16T22:55:13.428Z,80.83
2023-04-16T22:57:39.807Z,81.06
2023-04-16T23:00:09.666Z,81.62
2023-04-16T23:02:36.287Z,81.21
2023-04-16T23:05:03.010Z,81.54
2023-04-16T23:07:29.420Z,81.08
2023-04-16T23:09:55.804Z,80.96
2023-04-16T23:12:22.152Z,80.23
2023-04-16T23:14:48.550Z,80.78
2023-04-16T23:17:14.927Z,81.13
2023-04-16T23:19:41.802Z,80.12
2023-04-16T23:22:08.187Z,80.87
2023-04-16T23:24:34.610Z,80.53
2023-04-16T23:27:01.345Z,82.21
2023-04-16T23:29:27.777Z,81.23
2023-04-16T23:31:54.185Z,82.13
2023-04-16T23:34:20.546Z,82.31
2023-04-16T23:36:46.960Z,82.70
2023-04-16T23:39:13.504Z,82.62
2023-04-16T23:41:40.294Z,82.81
2023-04-16T23:44:06.652Z,82.87
2023-04-16T23:46:33.037Z,82.60
2023-04-16T23:48:59.403Z,82.47
2023-04-16T23:51:26.507Z,82.73
2023-04-16T23:53:52.849Z,82.78
2023-04-16T23:56:19.211Z,82.90
2023-04-16T23:58:45.747Z,82.74
